Schedule Details

Flight Number: CPX784
Departure: Incheon International Airport (RKSI) at N/A
Arrival: Tan Son Nhat International Airport (VVTS) at N/A
Route: BOPTA1K BOPTA Z51 BEDES Y711 MUGUS Y742 SALMI Q11 DRAKE Q11 TACLE Q12 KABAM N892 MESOX Q15 CRA W2 PTH BAOMY1F


Current Weather Information
RKSI 192230Z 30005KT 7000 BKN040 02/M03 Q1024 NOSIG
VVTS 192230Z 12007KT 9999 FEW017 SCT050 25/24 Q1014 NOSIG